createdAt,value
2022-12-27T00:02:29.531Z,1.85
2022-12-27T00:04:55.956Z,1.92
2022-12-27T00:07:22.428Z,2.25
2022-12-27T00:09:48.932Z,1.65
2022-12-27T00:12:15.386Z,2.20
2022-12-27T00:14:41.816Z,2.10
2022-12-27T00:17:08.211Z,1.48
2022-12-27T00:19:34.596Z,1.95
2022-12-27T00:22:01.187Z,1.35
2022-12-27T00:24:27.927Z,1.52
2022-12-27T00:29:20.671Z,3.38
2022-12-27T00:31:47.124Z,1.38
2022-12-27T00:34:13.573Z,1.83
2022-12-27T00:36:40.143Z,2.88
2022-12-27T00:39:06.532Z,1.92
2022-12-27T00:41:32.964Z,1.65
2022-12-27T00:43:59.377Z,1.63
2022-12-27T00:46:25.851Z,1.90
2022-12-27T00:48:52.596Z,1.70
2022-12-27T00:51:24.511Z,1.83
2022-12-27T00:53:52.499Z,2.58
2022-12-27T00:56:25.523Z,1.50
2022-12-27T00:58:57.059Z,2.00
2022-12-27T01:01:24.814Z,2.05
2022-12-27T01:03:51.596Z,1.73
2022-12-27T01:08:47.171Z,2.13
2022-12-27T01:11:15.803Z,1.55
2022-12-27T01:13:42.818Z,1.98
2022-12-27T01:16:11.855Z,1.50
2022-12-27T01:18:38.791Z,1.55
2022-12-27T01:21:07.224Z,2.22
2022-12-27T01:23:33.625Z,1.30
2022-12-27T01:26:02.214Z,1.40
2022-12-27T01:28:28.782Z,1.45
2022-12-27T01:30:55.184Z,1.58
2022-12-27T01:33:21.588Z,2.08
2022-12-27T01:35:48.210Z,1.73
2022-12-27T01:40:41.740Z,1.88
2022-12-27T01:45:41.489Z,1.80
2022-12-27T01:48:22.369Z,3.47
2022-12-27T01:50:57.387Z,2.20
2022-12-27T01:53:27.876Z,1.67
2022-12-27T01:55:57.109Z,3.00
2022-12-27T01:58:41.618Z,4.68
2022-12-27T02:01:23.472Z,1.77
2022-12-27T02:03:58.542Z,2.10
2022-12-27T02:06:27.028Z,1.85
2022-12-27T02:09:12.490Z,1.52
2022-12-27T02:12:20.767Z,2.22
2022-12-27T02:14:49.552Z,2.00
2022-12-27T02:17:25.267Z,2.20
2022-12-27T02:20:12.485Z,1.95
2022-12-27T02:23:16.454Z,1.42
2022-12-27T02:26:24.344Z,1.67
2022-12-27T02:29:32.579Z,1.52
2022-12-27T02:32:26.245Z,2.55
2022-12-27T02:35:02.502Z,1.40
2022-12-27T02:37:32.278Z,2.03
2022-12-27T02:40:21.679Z,2.47
2022-12-27T02:43:09.266Z,2.55
2022-12-27T02:46:01.141Z,1.67
2022-12-27T02:48:46.124Z,2.33
2022-12-27T02:52:00.719Z,3.22
2022-12-27T02:54:53.558Z,1.80
2022-12-27T02:57:37.801Z,1.90
2022-12-27T03:01:15.661Z,2.20
2022-12-27T03:04:22.259Z,1.50
2022-12-27T03:07:19.618Z,2.00
2022-12-27T03:10:21.455Z,1.50
2022-12-27T03:13:42.647Z,1.80
2022-12-27T03:16:37.880Z,1.70
2022-12-27T03:19:40.418Z,1.92
2022-12-27T03:22:27.777Z,1.70
2022-12-27T03:25:17.226Z,1.60
2022-12-27T03:27:45.923Z,2.45
2022-12-27T03:30:42.039Z,2.10
2022-12-27T03:33:14.673Z,2.00
2022-12-27T03:36:11.924Z,1.58
2022-12-27T03:39:15.383Z,1.88
2022-12-27T03:42:12.632Z,1.77
2022-12-27T03:44:40.091Z,2.25
2022-12-27T03:47:23.096Z,1.60
2022-12-27T03:49:55.911Z,1.77
2022-12-27T03:52:27.846Z,1.73
2022-12-27T03:54:55.286Z,1.83
2022-12-27T03:57:24.522Z,2.15
2022-12-27T03:59:51.061Z,1.95
2022-12-27T04:02:17.676Z,2.08
2022-12-27T04:07:13.531Z,2.08
2022-12-27T04:09:58.629Z,1.85
2022-12-27T04:12:43.860Z,1.67
2022-12-27T04:15:29.243Z,1.92
2022-12-27T04:18:14.402Z,1.67
2022-12-27T04:20:59.170Z,2.10
2022-12-27T04:23:43.934Z,1.80
2022-12-27T04:26:28.725Z,1.98
2022-12-27T04:29:13.724Z,2.05
2022-12-27T04:31:58.946Z,2.05
2022-12-27T04:34:42.488Z,2.00
2022-12-27T04:37:14.392Z,2.70
2022-12-27T04:39:40.993Z,1.85
2022-12-27T04:42:26.000Z,2.10
2022-12-27T04:45:15.195Z,2.47
2022-12-27T04:48:00.763Z,2.70
2022-12-27T04:50:49.170Z,2.17
2022-12-27T04:53:37.305Z,2.45
2022-12-27T04:56:05.017Z,2.55
2022-12-27T04:58:32.135Z,1.92
2022-12-27T05:01:20.094Z,3.05
2022-12-27T05:03:49.220Z,3.30
2022-12-27T05:06:15.731Z,2.20
2022-12-27T05:09:00.915Z,2.65
2022-12-27T05:11:45.773Z,2.30
2022-12-27T05:14:15.174Z,2.17
2022-12-27T05:16:43.795Z,2.88
2022-12-27T05:19:12.993Z,2.72
2022-12-27T05:22:02.036Z,1.90
2022-12-27T05:24:48.560Z,2.13
2022-12-27T05:27:15.319Z,3.00
2022-12-27T05:29:41.869Z,2.50
2022-12-27T05:32:13.063Z,2.28
2022-12-27T05:34:40.161Z,2.53
2022-12-27T05:37:06.631Z,2.65
2022-12-27T05:39:33.019Z,2.38
2022-12-27T05:41:59.461Z,3.10
2022-12-27T05:44:25.850Z,2.20
2022-12-27T05:46:54.286Z,3.03
2022-12-27T05:49:20.740Z,2.33
2022-12-27T05:51:47.508Z,2.42
2022-12-27T05:54:13.996Z,2.20
2022-12-27T05:56:41.252Z,1.88
2022-12-27T05:59:08.187Z,2.30
2022-12-27T06:01:34.760Z,2.72
2022-12-27T06:06:28.890Z,2.22
2022-12-27T06:08:55.469Z,2.88
2022-12-27T06:11:22.108Z,2.17
2022-12-27T06:16:21.531Z,1.70
2022-12-27T06:18:48.303Z,2.08
2022-12-27T06:23:52.905Z,2.25
2022-12-27T06:26:27.901Z,3.07
2022-12-27T06:28:55.667Z,1.67
2022-12-27T06:31:23.274Z,2.85
2022-12-27T06:33:51.299Z,2.08
2022-12-27T06:36:20.641Z,2.00
2022-12-27T06:38:48.053Z,2.33
2022-12-27T06:41:19.567Z,1.80
2022-12-27T06:43:47.496Z,1.80
2022-12-27T06:46:18.191Z,2.47
2022-12-27T06:48:46.350Z,2.08
2022-12-27T06:51:15.014Z,2.30
2022-12-27T06:53:41.893Z,1.77
2022-12-27T06:56:19.530Z,1.63
2022-12-27T06:58:50.263Z,1.75
2022-12-27T07:01:19.659Z,2.42
2022-12-27T07:03:57.777Z,2.13
2022-12-27T07:06:26.006Z,1.88
2022-12-27T07:08:53.128Z,1.67
2022-12-27T07:11:20.905Z,2.42
2022-12-27T07:13:52.386Z,2.05
2022-12-27T07:16:22.780Z,1.92
2022-12-27T07:18:50.231Z,2.55
2022-12-27T07:21:22.412Z,1.73
2022-12-27T07:23:52.200Z,1.98
2022-12-27T07:26:49.023Z,1.52
2022-12-27T07:29:15.761Z,1.75
2022-12-27T07:35:03.135Z,1.55
2022-12-27T07:49:20.603Z,2.38
2022-12-27T07:52:01.466Z,1.67
2022-12-27T07:55:06.168Z,2.88
2022-12-27T07:57:52.150Z,2.20
2022-12-27T08:07:03.038Z,1.88
2022-12-27T08:09:54.485Z,1.98
2022-12-27T08:12:23.572Z,2.67
2022-12-27T08:14:50.263Z,1.95
2022-12-27T08:27:41.203Z,2.58
2022-12-27T08:30:30.202Z,4.00
2022-12-27T08:32:57.378Z,2.60
2022-12-27T08:35:51.605Z,2.42
2022-12-27T08:45:53.820Z,4.25
2022-12-27T08:50:49.933Z,2.88
2022-12-27T08:56:10.629Z,2.10
2022-12-27T08:58:37.327Z,3.15
2022-12-27T09:03:45.492Z,2.45
2022-12-27T09:06:30.496Z,2.40
2022-12-27T09:09:10.028Z,2.35
2022-12-27T09:11:42.686Z,2.35
2022-12-27T09:14:10.456Z,2.65
2022-12-27T09:16:37.114Z,2.20
2022-12-27T09:21:32.166Z,2.43
2022-12-27T09:24:02.167Z,2.28
2022-12-27T09:26:30.274Z,2.40
2022-12-27T09:28:58.192Z,2.50
2022-12-27T09:31:25.325Z,2.03
2022-12-27T09:33:52.834Z,2.58
2022-12-27T09:36:22.270Z,2.20
2022-12-27T09:38:49.996Z,2.20
2022-12-27T09:44:30.002Z,2.67
2022-12-27T09:47:12.161Z,2.45
2022-12-27T09:49:49.219Z,2.25
2022-12-27T09:52:35.489Z,3.30
2022-12-27T09:55:35.882Z,2.22
2022-12-27T09:58:54.125Z,3.03
2022-12-27T10:05:09.936Z,2.50
2022-12-27T10:08:08.779Z,2.70
2022-12-27T10:10:50.607Z,2.40
2022-12-27T10:17:12.934Z,2.38
2022-12-27T10:19:51.457Z,2.50
2022-12-27T10:22:28.984Z,2.50
2022-12-27T10:24:59.276Z,2.63
2022-12-27T10:36:01.784Z,2.88
2022-12-27T11:21:33.974Z,2.80
2022-12-27T11:32:01.265Z,2.75
2022-12-27T11:35:16.234Z,3.13
2022-12-27T11:53:00.936Z,2.75
2022-12-27T11:56:41.197Z,3.75
2022-12-27T12:07:56.617Z,2.55
2022-12-27T12:10:36.272Z,2.55
2022-12-27T12:13:08.127Z,3.05
2022-12-27T12:16:02.817Z,5.25
2022-12-27T12:19:01.885Z,3.42
2022-12-27T12:21:40.551Z,2.97
2022-12-27T12:25:04.393Z,2.65
2022-12-27T12:28:47.257Z,2.28
2022-12-27T12:31:20.341Z,2.42
2022-12-27T12:34:15.537Z,2.58
2022-12-27T12:36:52.855Z,2.40
2022-12-27T12:39:51.911Z,2.15
2022-12-27T12:42:33.650Z,2.25
2022-12-27T12:45:25.019Z,2.35
2022-12-27T12:48:22.469Z,2.50
2022-12-27T12:51:18.872Z,2.22
2022-12-27T12:53:48.181Z,3.28
2022-12-27T12:56:26.681Z,4.07
2022-12-27T12:59:49.309Z,2.40
2022-12-27T13:02:28.645Z,2.33
2022-12-27T13:05:04.270Z,2.22
2022-12-27T13:07:55.985Z,1.73
2022-12-27T13:10:44.944Z,1.88
2022-12-27T13:13:22.751Z,2.13
2022-12-27T13:16:16.992Z,2.20
2022-12-27T13:18:58.972Z,2.33
2022-12-27T13:21:59.497Z,1.88
2022-12-27T13:24:51.145Z,2.38
2022-12-27T13:27:28.552Z,2.17
2022-12-27T13:30:07.517Z,2.30
2022-12-27T13:33:02.092Z,1.80
2022-12-27T13:35:55.003Z,2.05
2022-12-27T13:38:26.661Z,2.28
2022-12-27T13:41:32.579Z,1.77
2022-12-27T13:44:11.452Z,1.92
2022-12-27T13:47:08.781Z,2.28
2022-12-27T13:49:43.398Z,1.75
2022-12-27T13:52:25.829Z,2.38
2022-12-27T13:55:22.062Z,3.97
2022-12-27T13:58:25.690Z,1.80
2022-12-27T14:01:01.331Z,1.98
2022-12-27T14:04:05.536Z,2.15
2022-12-27T14:07:04.731Z,3.58
2022-12-27T14:09:59.214Z,4.32
2022-12-27T14:12:31.688Z,1.90
2022-12-27T14:15:13.352Z,3.25
2022-12-27T14:21:15.712Z,1.90
2022-12-27T14:24:03.397Z,2.13
2022-12-27T14:27:21.365Z,1.80
2022-12-27T14:30:18.325Z,2.20
2022-12-27T14:32:57.748Z,2.22
2022-12-27T14:36:01.760Z,1.90
2022-12-27T14:39:09.145Z,2.30
2022-12-27T14:42:23.435Z,1.88
2022-12-27T14:45:14.370Z,1.77
2022-12-27T14:48:00.577Z,2.78
2022-12-27T14:50:56.263Z,2.40
2022-12-27T14:53:47.590Z,2.45
2022-12-27T14:56:35.588Z,2.40
2022-12-27T14:59:07.780Z,3.30
2022-12-27T15:01:54.803Z,2.30
2022-12-27T15:04:43.474Z,2.65
2022-12-27T15:07:44.110Z,2.35
2022-12-27T15:10:33.785Z,2.42
2022-12-27T15:13:22.402Z,2.50
2022-12-27T15:15:51.965Z,1.77
2022-12-27T15:18:26.513Z,3.22
2022-12-27T15:21:32.278Z,3.95
2022-12-27T15:24:21.493Z,2.73
2022-12-27T15:27:09.327Z,3.28
2022-12-27T15:29:50.283Z,2.15
2022-12-27T15:32:41.798Z,4.00
2022-12-27T15:35:17.230Z,2.70
2022-12-27T15:38:11.903Z,2.85
2022-12-27T15:40:45.795Z,3.28
2022-12-27T15:43:31.759Z,2.90
2022-12-27T15:46:08.600Z,2.58
2022-12-27T15:48:53.646Z,2.78
2022-12-27T15:51:50.471Z,2.83
2022-12-27T15:54:27.727Z,2.40
2022-12-27T15:59:51.177Z,3.67
2022-12-27T16:02:17.661Z,3.70
2022-12-27T16:04:53.856Z,3.50
2022-12-27T16:07:37.318Z,6.63
2022-12-27T16:10:35.653Z,3.63
2022-12-27T16:15:50.178Z,4.05
2022-12-27T16:18:16.675Z,3.90
2022-12-27T16:21:05.520Z,3.25
2022-12-27T16:23:39.010Z,5.25
2022-12-27T16:26:10.495Z,3.65
2022-12-27T16:28:40.659Z,4.38
2022-12-27T16:31:11.965Z,4.28
2022-12-27T16:33:42.176Z,3.72
2022-12-27T16:36:11.871Z,4.20
2022-12-27T16:38:45.563Z,4.30
2022-12-27T16:41:39.108Z,5.00
2022-12-27T16:44:14.208Z,3.80
2022-12-27T16:47:08.181Z,3.92
2022-12-27T16:50:19.387Z,4.68
2022-12-27T16:52:55.091Z,4.55
2022-12-27T16:55:52.516Z,4.78
2022-12-27T16:58:31.366Z,4.17
2022-12-27T17:00:59.711Z,3.50
2022-12-27T17:03:35.392Z,3.95
2022-12-27T17:06:32.678Z,3.97
2022-12-27T17:11:34.699Z,4.72
2022-12-27T17:14:14.327Z,5.07
2022-12-27T17:16:48.530Z,6.03
2022-12-27T17:19:21.174Z,4.88
2022-12-27T17:21:57.361Z,4.88
2022-12-27T17:24:23.882Z,6.30
2022-12-27T17:27:21.192Z,5.93
2022-12-27T17:30:06.363Z,3.70
2022-12-27T17:32:55.012Z,3.92
2022-12-27T17:35:43.986Z,3.85
2022-12-27T17:38:49.835Z,5.07
2022-12-27T17:41:54.060Z,3.90
2022-12-27T17:44:39.035Z,3.85
2022-12-27T17:47:37.195Z,4.50
2022-12-27T17:50:07.444Z,4.22
2022-12-27T17:52:52.639Z,4.60
2022-12-27T17:55:45.087Z,4.78
2022-12-27T17:58:17.003Z,4.55
2022-12-27T18:01:03.958Z,6.05
2022-12-27T18:03:37.454Z,5.07
2022-12-27T18:06:04.484Z,4.93
2022-12-27T18:08:34.243Z,5.43
2022-12-27T18:11:03.664Z,5.70
2022-12-27T18:13:34.206Z,7.28
2022-12-27T18:16:14.194Z,6.03
2022-12-27T18:18:45.632Z,5.68
2022-12-27T18:21:28.001Z,5.95
2022-12-27T18:23:55.110Z,4.95
2022-12-27T18:26:33.345Z,6.55
2022-12-27T18:28:59.812Z,6.75
2022-12-27T18:31:33.553Z,7.22
2022-12-27T18:34:17.338Z,6.78
2022-12-27T18:36:55.692Z,6.93
2022-12-27T18:39:33.895Z,8.45
2022-12-27T18:42:04.667Z,7.70
2022-12-27T18:44:42.489Z,7.47
2022-12-27T18:47:18.009Z,7.32
2022-12-27T18:49:44.646Z,7.03
2022-12-27T18:54:39.145Z,6.20
2022-12-27T18:57:24.298Z,7.30
2022-12-27T19:00:02.120Z,7.25
2022-12-27T19:02:34.276Z,6.93
2022-12-27T19:05:20.025Z,6.82
2022-12-27T19:07:58.584Z,6.72
2022-12-27T19:10:28.489Z,6.50
2022-12-27T19:12:56.306Z,7.25
2022-12-27T19:15:36.934Z,7.05
2022-12-27T19:18:06.294Z,7.38
2022-12-27T19:20:37.102Z,6.35
2022-12-27T19:23:34.985Z,6.78
2022-12-27T19:26:16.661Z,6.78
2022-12-27T19:28:45.290Z,7.28
2022-12-27T19:31:18.204Z,6.80
2022-12-27T19:33:50.198Z,6.75
2022-12-27T19:36:17.196Z,6.93
2022-12-27T19:38:47.788Z,7.57
2022-12-27T19:41:14.928Z,7.70
2022-12-27T19:46:12.950Z,6.65
2022-12-27T19:48:40.235Z,5.85
2022-12-27T19:51:07.629Z,6.70
2022-12-27T19:53:38.477Z,6.55
2022-12-27T19:56:07.953Z,6.25
2022-12-27T19:58:34.709Z,5.85
2022-12-27T20:01:01.272Z,5.15
2022-12-27T20:03:27.811Z,6.78
2022-12-27T20:06:14.034Z,5.93
2022-12-27T20:08:48.529Z,5.90
2022-12-27T20:11:21.253Z,6.32
2022-12-27T20:13:48.388Z,6.03
2022-12-27T20:16:17.340Z,6.47
2022-12-27T20:18:44.167Z,6.32
2022-12-27T20:21:19.115Z,7.03
2022-12-27T20:23:46.581Z,6.63
2022-12-27T20:26:19.969Z,6.72
2022-12-27T20:28:46.962Z,6.28
2022-12-27T20:31:16.393Z,7.13
2022-12-27T20:33:43.196Z,7.30
2022-12-27T20:36:10.492Z,7.25
2022-12-27T20:38:40.070Z,6.25
2022-12-27T20:41:11.447Z,7.00
2022-12-27T20:43:38.468Z,6.47
2022-12-27T20:46:10.780Z,6.15
2022-12-27T20:48:42.143Z,5.82
2022-12-27T20:51:16.766Z,7.55
2022-12-27T20:53:48.332Z,6.75
2022-12-27T20:56:15.922Z,5.57
2022-12-27T20:58:42.895Z,7.07
2022-12-27T21:01:15.445Z,7.22
2022-12-27T21:03:43.087Z,6.03
2022-12-27T21:06:18.249Z,5.95
2022-12-27T21:08:49.147Z,6.25
2022-12-27T21:11:24.311Z,5.05
2022-12-27T21:13:50.878Z,5.25
2022-12-27T21:16:28.400Z,4.97
2022-12-27T21:18:56.144Z,5.75
2022-12-27T21:21:27.940Z,5.15
2022-12-27T21:23:55.099Z,4.35
2022-12-27T21:26:25.040Z,4.00
2022-12-27T21:28:54.367Z,4.30
2022-12-27T21:31:21.457Z,4.43
2022-12-27T21:33:51.066Z,4.40
2022-12-27T21:36:23.935Z,3.78
2022-12-27T21:38:53.523Z,4.35
2022-12-27T21:41:28.618Z,4.40
2022-12-27T21:43:55.605Z,5.00
2022-12-27T21:46:45.169Z,4.10
2022-12-27T21:49:15.049Z,3.60
2022-12-27T21:51:42.774Z,4.07
2022-12-27T21:54:10.627Z,3.63
2022-12-27T21:56:37.990Z,4.18
2022-12-27T21:59:10.763Z,4.15
2022-12-27T22:01:49.980Z,3.95
2022-12-27T22:04:19.343Z,3.60
2022-12-27T22:06:47.404Z,3.65
2022-12-27T22:09:15.023Z,3.58
2022-12-27T22:11:41.620Z,3.78
2022-12-27T22:14:08.184Z,3.85
2022-12-27T22:16:37.965Z,3.03
2022-12-27T22:19:12.276Z,3.25
2022-12-27T22:21:45.007Z,3.78
2022-12-27T22:24:15.537Z,4.05
2022-12-27T22:26:43.011Z,3.58
2022-12-27T22:29:12.030Z,3.17
2022-12-27T22:31:39.385Z,3.65
2022-12-27T22:34:06.748Z,3.42
2022-12-27T22:36:34.671Z,3.33
2022-12-27T22:39:01.724Z,3.22
2022-12-27T22:41:31.285Z,3.03
2022-12-27T22:44:00.663Z,3.70
2022-12-27T22:46:28.573Z,3.38
2022-12-27T22:49:01.146Z,3.00
2022-12-27T22:51:31.836Z,3.15
2022-12-27T22:53:59.608Z,4.93
2022-12-27T22:56:29.036Z,3.60
2022-12-27T22:58:55.960Z,3.33
2022-12-27T23:01:28.466Z,4.40
2022-12-27T23:03:56.300Z,3.65
2022-12-27T23:06:24.237Z,3.42
2022-12-27T23:08:51.382Z,4.25
2022-12-27T23:11:44.322Z,4.03
2022-12-27T23:14:16.320Z,4.55
2022-12-27T23:16:45.733Z,4.10
2022-12-27T23:19:14.418Z,4.57
2022-12-27T23:21:41.643Z,3.90
2022-12-27T23:24:09.484Z,3.83
2022-12-27T23:26:36.453Z,4.30
2022-12-27T23:29:03.891Z,3.85
2022-12-27T23:31:30.339Z,4.03
2022-12-27T23:33:57.053Z,3.90
2022-12-27T23:38:50.449Z,3.75
2022-12-27T23:43:54.382Z,3.65
2022-12-27T23:46:30.108Z,3.90
2022-12-27T23:48:58.333Z,3.63
2022-12-27T23:51:25.451Z,3.60
2022-12-27T23:53:52.378Z,3.35
2022-12-27T23:56:22.209Z,3.60
2022-12-27T23:58:50.288Z,3.33
